createdAt,value
2018-02-22T00:01:49.282Z,0.19
2018-02-22T00:04:16.745Z,0.13
2018-02-22T00:06:44.170Z,0.12
2018-02-22T00:09:11.589Z,0.11
2018-02-22T00:11:39.010Z,0.12
2018-02-22T00:14:06.442Z,0.12
2018-02-22T00:16:33.849Z,0.05
2018-02-22T00:19:01.266Z,0.06
2018-02-22T00:21:28.698Z,0.01
2018-02-22T00:23:56.117Z,-0.01
2018-02-22T00:26:23.554Z,-0.08
2018-02-22T00:28:50.969Z,-0.12
2018-02-22T00:31:18.394Z,-0.09
2018-02-22T00:33:45.838Z,-0.13
2018-02-22T00:36:13.298Z,-0.17
2018-02-22T00:38:40.723Z,-0.17
2018-02-22T00:41:08.145Z,-0.16
2018-02-22T00:43:35.567Z,-0.15
2018-02-22T00:46:02.984Z,-0.15
2018-02-22T00:48:30.414Z,-0.18
2018-02-22T00:50:57.830Z,-0.17
2018-02-22T00:53:25.254Z,-0.16
2018-02-22T00:55:52.698Z,-0.20
2018-02-22T00:58:20.115Z,-0.24
2018-02-22T01:00:47.540Z,-0.23
2018-02-22T01:03:14.953Z,-0.23
2018-02-22T01:05:42.379Z,-0.22
2018-02-22T01:08:09.798Z,-0.26
2018-02-22T01:10:37.218Z,-0.24
2018-02-22T01:13:04.641Z,-0.26
2018-02-22T01:15:32.066Z,-0.29
2018-02-22T01:17:59.485Z,-0.32
2018-02-22T01:20:26.901Z,-0.36
2018-02-22T01:22:54.324Z,-0.36
2018-02-22T01:25:21.755Z,-0.37
2018-02-22T01:27:49.187Z,-0.37
2018-02-22T01:30:16.604Z,-0.44
2018-02-22T01:32:44.015Z,-0.44
2018-02-22T01:35:11.451Z,-0.45
2018-02-22T01:37:38.870Z,-0.48
2018-02-22T01:40:06.281Z,-0.54
2018-02-22T01:42:33.711Z,-0.54
2018-02-22T01:45:01.139Z,-0.63
2018-02-22T01:47:28.558Z,-0.62
2018-02-22T01:49:55.973Z,-0.60
2018-02-22T01:52:23.421Z,-0.57
2018-02-22T01:54:50.843Z,-0.66
2018-02-22T01:57:18.265Z,-0.67
2018-02-22T01:59:45.692Z,-0.69
2018-02-22T02:02:13.109Z,-0.66
2018-02-22T02:04:40.574Z,-0.71
2018-02-22T02:07:07.994Z,-0.76
2018-02-22T02:09:35.417Z,-0.68
2018-02-22T02:12:02.885Z,-0.73
2018-02-22T02:14:30.299Z,-0.72
2018-02-22T02:16:57.726Z,-0.73
2018-02-22T02:19:25.168Z,-0.71
2018-02-22T02:21:52.595Z,-0.66
2018-02-22T02:24:20.015Z,-0.72
2018-02-22T02:26:47.805Z,-0.80
2018-02-22T02:29:15.218Z,-0.84
2018-02-22T02:31:42.642Z,-0.88
2018-02-22T02:34:10.067Z,-0.85
2018-02-22T02:36:37.491Z,-0.87
2018-02-22T02:39:04.924Z,-0.90
2018-02-22T02:41:32.334Z,-0.95
2018-02-22T02:43:59.767Z,-0.98
2018-02-22T02:46:27.196Z,-0.93
2018-02-22T02:48:54.626Z,-0.90
2018-02-22T02:51:22.058Z,-0.99
2018-02-22T02:53:49.476Z,-0.96
2018-02-22T02:56:16.910Z,-0.95
2018-02-22T02:58:44.414Z,-0.97
2018-02-22T03:01:11.831Z,-0.92
2018-02-22T03:03:39.255Z,-0.94
2018-02-22T03:06:06.675Z,-0.91
2018-02-22T03:08:34.102Z,-0.92
2018-02-22T03:11:01.522Z,-0.97
2018-02-22T03:13:28.940Z,-0.96
2018-02-22T03:15:56.361Z,-0.98
2018-02-22T03:18:23.778Z,-1.04
2018-02-22T03:20:51.217Z,-1.05
2018-02-22T03:23:18.643Z,-1.06
2018-02-22T03:25:46.061Z,-1.07
2018-02-22T03:28:13.486Z,-1.05
2018-02-22T03:30:40.911Z,-1.05
2018-02-22T03:33:08.609Z,-1.07
2018-02-22T03:35:36.041Z,-1.03
2018-02-22T03:38:03.454Z,-1.06
2018-02-22T03:40:30.873Z,-1.04
2018-02-22T03:42:58.293Z,-1.10
2018-02-22T03:45:25.727Z,-1.10
2018-02-22T03:47:53.156Z,-1.09
2018-02-22T03:50:20.589Z,-1.11
2018-02-22T03:52:48.006Z,-1.04
2018-02-22T03:55:15.427Z,-1.06
2018-02-22T03:57:42.861Z,-1.07
2018-02-22T04:00:10.278Z,-1.08
2018-02-22T04:02:37.693Z,-1.07
2018-02-22T04:05:05.118Z,-1.08
2018-02-22T04:07:32.538Z,-1.07
2018-02-22T04:09:59.959Z,-1.06
2018-02-22T04:12:27.379Z,-1.07
2018-02-22T04:14:54.796Z,-1.10
2018-02-22T04:17:22.225Z,-1.12
2018-02-22T04:19:49.686Z,-1.08
2018-02-22T04:22:17.109Z,-1.11
2018-02-22T04:24:44.532Z,-1.03
2018-02-22T04:27:11.947Z,-1.05
2018-02-22T04:29:39.378Z,-1.04
2018-02-22T04:32:06.793Z,-1.00
2018-02-22T04:34:34.222Z,-1.03
2018-02-22T04:37:01.638Z,-1.05
2018-02-22T04:39:29.058Z,-1.02
2018-02-22T04:41:56.769Z,-0.97
2018-02-22T04:44:24.190Z,-0.99
2018-02-22T04:46:51.634Z,-1.02
2018-02-22T04:49:19.910Z,-1.04
2018-02-22T04:51:47.329Z,-1.00
2018-02-22T04:54:14.762Z,-1.02
2018-02-22T04:56:42.200Z,-1.02
2018-02-22T04:59:09.979Z,-0.99
2018-02-22T05:01:37.395Z,-0.98
2018-02-22T05:04:04.810Z,-0.95
2018-02-22T05:06:32.229Z,-0.96
2018-02-22T05:08:59.678Z,-0.88
2018-02-22T05:11:27.108Z,-0.96
2018-02-22T05:13:54.523Z,-0.94
2018-02-22T05:16:21.970Z,-1.00
2018-02-22T05:18:49.406Z,-0.96
2018-02-22T05:21:16.814Z,-0.93
2018-02-22T05:23:44.242Z,-0.94
2018-02-22T05:26:11.675Z,-0.92
2018-02-22T05:28:39.081Z,-0.92
2018-02-22T05:31:06.510Z,-0.90
2018-02-22T05:33:33.938Z,-0.88
2018-02-22T05:36:01.362Z,-0.92
2018-02-22T05:38:28.801Z,-0.92
2018-02-22T05:40:56.213Z,-0.95
2018-02-22T05:43:23.643Z,-0.93
2018-02-22T05:45:51.078Z,-0.93
2018-02-22T05:48:18.530Z,-0.90
2018-02-22T05:50:45.953Z,-0.92
2018-02-22T05:53:13.370Z,-0.88
2018-02-22T05:55:40.801Z,-0.86
2018-02-22T05:58:08.218Z,-0.79
2018-02-22T06:00:35.642Z,-0.84
2018-02-22T06:03:03.058Z,-0.88
2018-02-22T06:05:30.486Z,-0.84
2018-02-22T06:07:57.914Z,-0.78
2018-02-22T06:10:25.358Z,-0.76
2018-02-22T06:12:52.783Z,-0.79
2018-02-22T06:15:20.220Z,-0.73
2018-02-22T06:17:48.023Z,-0.69
2018-02-22T06:20:15.447Z,-0.64
2018-02-22T06:22:42.865Z,-0.65
2018-02-22T06:25:10.298Z,-0.60
2018-02-22T06:27:37.714Z,-0.52
2018-02-22T06:30:05.154Z,-0.55
2018-02-22T06:32:32.566Z,-0.51
2018-02-22T06:35:00.022Z,-0.51
2018-02-22T06:37:27.458Z,-0.52
2018-02-22T06:39:54.911Z,-0.54
2018-02-22T06:42:22.340Z,-0.50
2018-02-22T06:44:49.758Z,-0.54
2018-02-22T06:47:17.206Z,-0.51
2018-02-22T06:49:44.673Z,-0.46
2018-02-22T06:52:12.176Z,-0.41
2018-02-22T06:54:39.634Z,-0.36
2018-02-22T06:57:07.066Z,-0.32
2018-02-22T06:59:34.510Z,-0.28
2018-02-22T07:02:01.978Z,-0.32
2018-02-22T07:04:29.419Z,-0.33
2018-02-22T07:06:56.878Z,-0.35
2018-02-22T07:09:24.289Z,-0.36
2018-02-22T07:11:51.755Z,-0.31
2018-02-22T07:14:19.204Z,-0.27
2018-02-22T07:16:46.700Z,-0.23
2018-02-22T07:19:14.321Z,-0.18
2018-02-22T07:21:41.765Z,-0.17
2018-02-22T07:24:09.234Z,-0.12
2018-02-22T07:26:36.677Z,-0.09
2018-02-22T07:29:04.092Z,0.02
2018-02-22T07:31:31.522Z,-0.04
2018-02-22T07:33:58.962Z,-0.02
2018-02-22T07:36:26.398Z,0.04
2018-02-22T07:38:53.834Z,0.07
2018-02-22T07:41:21.274Z,0.13
2018-02-22T07:43:48.711Z,0.15
2018-02-22T07:46:16.137Z,0.15
2018-02-22T07:48:43.574Z,0.14
2018-02-22T07:51:11.049Z,0.24
2018-02-22T07:53:38.480Z,0.29
2018-02-22T07:56:05.912Z,0.33
2018-02-22T07:58:33.338Z,0.38
2018-02-22T08:01:00.796Z,0.43
2018-02-22T08:03:28.292Z,0.43
2018-02-22T08:05:56.174Z,0.49
2018-02-22T08:08:23.597Z,0.53
2018-02-22T08:10:51.033Z,0.57
2018-02-22T08:13:18.505Z,0.67
2018-02-22T08:15:45.962Z,0.72
2018-02-22T08:18:13.834Z,0.79
2018-02-22T08:20:41.309Z,0.88
2018-02-22T08:23:08.746Z,0.96
2018-02-22T08:25:36.154Z,1.00
2018-02-22T08:28:03.584Z,1.08
2018-02-22T08:30:31.314Z,1.11
2018-02-22T08:32:58.730Z,1.20
2018-02-22T08:35:26.155Z,1.23
2018-02-22T08:37:53.601Z,1.26
2018-02-22T08:40:21.054Z,1.31
2018-02-22T08:42:48.578Z,1.39
2018-02-22T08:45:15.994Z,1.48
2018-02-22T08:47:43.423Z,1.59
2018-02-22T08:50:10.881Z,1.80
2018-02-22T08:52:38.340Z,1.81
2018-02-22T08:55:06.115Z,1.89
2018-02-22T08:57:33.534Z,2.08
2018-02-22T09:00:00.958Z,2.14
2018-02-22T09:02:28.410Z,2.33
2018-02-22T09:04:55.832Z,2.40
2018-02-22T09:07:23.564Z,2.40
2018-02-22T09:09:50.983Z,2.53
2018-02-22T09:12:18.402Z,2.57
2018-02-22T09:14:45.869Z,2.64
2018-02-22T09:17:13.283Z,2.79
2018-02-22T09:19:40.721Z,3.00
2018-02-22T09:22:08.153Z,3.11
2018-02-22T09:24:35.570Z,3.41
2018-02-22T09:27:03.034Z,3.49
2018-02-22T09:29:30.474Z,3.69
2018-02-22T09:31:57.933Z,3.77
2018-02-22T09:34:25.342Z,3.81
2018-02-22T09:36:52.760Z,3.84
2018-02-22T09:39:20.212Z,3.86
2018-02-22T09:41:47.647Z,3.99
2018-02-22T09:44:15.093Z,4.06
2018-02-22T09:46:42.519Z,4.17
2018-02-22T09:49:09.934Z,4.55
2018-02-22T09:51:37.386Z,4.73
2018-02-22T09:54:04.798Z,5.07
2018-02-22T09:56:32.223Z,5.13
2018-02-22T09:58:59.630Z,4.69
2018-02-22T10:01:27.049Z,4.87
2018-02-22T10:03:54.466Z,5.13
2018-02-22T10:06:21.872Z,5.24
2018-02-22T10:08:49.290Z,5.27
2018-02-22T10:11:16.709Z,5.60
2018-02-22T10:13:44.126Z,5.73
2018-02-22T10:16:11.542Z,5.70
2018-02-22T10:18:38.953Z,5.99
2018-02-22T10:21:06.462Z,6.27
2018-02-22T10:23:33.870Z,6.17
2018-02-22T10:26:01.281Z,6.24
2018-02-22T10:28:28.757Z,6.79
2018-02-22T10:30:56.127Z,7.26
2018-02-22T10:33:23.546Z,7.67
2018-02-22T10:35:50.969Z,7.36
2018-02-22T10:38:18.377Z,7.85
2018-02-22T10:40:45.794Z,8.18
2018-02-22T10:43:13.206Z,8.55
2018-02-22T10:45:40.638Z,8.19
2018-02-22T10:48:08.042Z,8.75
2018-02-22T10:50:35.455Z,8.43
2018-02-22T10:53:02.872Z,8.66
2018-02-22T10:55:30.277Z,8.88
2018-02-22T10:57:57.701Z,7.95
2018-02-22T11:00:30.594Z,8.23
2018-02-22T11:02:58.026Z,7.71
2018-02-22T11:05:25.438Z,7.78
2018-02-22T11:07:52.866Z,7.39
2018-02-22T11:10:20.284Z,7.73
2018-02-22T11:12:47.698Z,7.55
2018-02-22T11:15:15.128Z,7.85
2018-02-22T11:17:42.556Z,8.09
2018-02-22T11:20:09.966Z,8.13
2018-02-22T11:22:37.377Z,8.55
2018-02-22T11:25:04.793Z,8.97
2018-02-22T11:27:32.219Z,9.64
2018-02-22T11:29:59.634Z,9.08
2018-02-22T11:32:27.042Z,9.68
2018-02-22T11:34:54.458Z,9.59
2018-02-22T11:37:21.870Z,9.26
2018-02-22T11:39:49.289Z,8.94
2018-02-22T11:42:16.701Z,7.76
2018-02-22T11:44:44.123Z,7.57
2018-02-22T11:47:11.553Z,7.60
2018-02-22T11:49:38.966Z,7.63
2018-02-22T11:52:06.385Z,7.14
2018-02-22T11:54:33.804Z,6.70
2018-02-22T11:57:01.210Z,6.65
2018-02-22T11:59:28.633Z,6.44
2018-02-22T12:01:56.038Z,7.03
2018-02-22T12:04:23.465Z,7.01
2018-02-22T12:06:50.882Z,7.25
2018-02-22T12:09:18.297Z,7.53
2018-02-22T12:11:45.733Z,7.18
2018-02-22T12:14:13.163Z,6.94
2018-02-22T12:16:40.578Z,6.88
2018-02-22T12:19:07.986Z,7.22
2018-02-22T12:21:35.398Z,7.13
2018-02-22T12:24:02.810Z,6.99
2018-02-22T12:26:30.232Z,6.91
2018-02-22T12:28:57.657Z,7.26
2018-02-22T12:31:25.074Z,7.22
2018-02-22T12:33:52.522Z,6.76
2018-02-22T12:36:19.926Z,7.29
2018-02-22T12:38:47.341Z,7.36
2018-02-22T12:41:14.768Z,7.60
2018-02-22T12:43:42.182Z,7.73
2018-02-22T12:46:09.602Z,7.72
2018-02-22T12:48:37.063Z,7.41
2018-02-22T12:51:04.469Z,7.44
2018-02-22T12:53:31.894Z,7.69
2018-02-22T12:55:59.301Z,6.93
2018-02-22T12:58:26.725Z,6.79
2018-02-22T13:00:54.142Z,7.01
2018-02-22T13:03:21.574Z,7.40
2018-02-22T13:05:48.991Z,7.32
2018-02-22T13:08:16.399Z,7.21
2018-02-22T13:10:43.805Z,7.17
2018-02-22T13:13:11.230Z,7.26
2018-02-22T13:15:38.646Z,7.59
2018-02-22T13:18:06.075Z,7.46
2018-02-22T13:20:33.498Z,7.40
2018-02-22T13:23:00.919Z,7.29
2018-02-22T13:25:28.337Z,6.98
2018-02-22T13:27:55.750Z,6.64
2018-02-22T13:30:23.526Z,6.94
2018-02-22T13:33:02.582Z,7.46
2018-02-22T13:35:30.003Z,7.99
2018-02-22T13:38:17.974Z,8.06
2018-02-22T13:40:45.393Z,7.94
2018-02-22T13:43:12.807Z,8.22
2018-02-22T13:45:40.224Z,8.26
2018-02-22T13:48:07.634Z,7.97
2018-02-22T13:50:46.878Z,7.85
2018-02-22T13:53:14.290Z,7.97
2018-02-22T13:55:41.713Z,7.76
2018-02-22T13:58:09.123Z,7.28
2018-02-22T14:00:48.382Z,7.26
2018-02-22T14:03:15.818Z,7.01
2018-02-22T14:05:43.230Z,6.76
2018-02-22T14:08:10.642Z,6.80
2018-02-22T14:10:38.057Z,6.67
2018-02-22T14:13:05.469Z,6.83
2018-02-22T14:15:33.162Z,7.06
2018-02-22T14:18:00.581Z,6.69
2018-02-22T14:20:27.985Z,6.44
2018-02-22T14:22:55.410Z,6.59
2018-02-22T14:25:22.838Z,6.64
2018-02-22T14:27:50.281Z,6.40
2018-02-22T14:30:17.722Z,6.11
2018-02-22T14:32:45.133Z,6.20
2018-02-22T14:35:12.550Z,6.32
2018-02-22T14:37:39.966Z,6.34
2018-02-22T14:40:07.390Z,6.41
2018-02-22T14:42:34.798Z,6.11
2018-02-22T14:45:02.219Z,6.11
2018-02-22T14:47:29.638Z,5.96
2018-02-22T14:49:57.058Z,5.90
2018-02-22T14:52:24.499Z,5.94
2018-02-22T14:54:51.917Z,5.99
2018-02-22T14:57:19.334Z,6.01
2018-02-22T14:59:46.741Z,5.80
2018-02-22T15:02:19.869Z,5.96
2018-02-22T15:04:47.297Z,6.08
2018-02-22T15:07:15.311Z,6.13
2018-02-22T15:09:42.717Z,5.97
2018-02-22T15:12:10.151Z,5.84
2018-02-22T15:14:37.566Z,5.68
2018-02-22T15:17:04.991Z,5.75
2018-02-22T15:19:32.405Z,5.81
2018-02-22T15:21:59.817Z,5.79
2018-02-22T15:24:27.245Z,5.75
2018-02-22T15:26:54.653Z,5.43
2018-02-22T15:29:22.066Z,5.37
2018-02-22T15:31:49.481Z,5.37
2018-02-22T15:34:16.890Z,5.29
2018-02-22T15:36:44.297Z,5.46
2018-02-22T15:39:11.727Z,5.44
2018-02-22T15:41:39.133Z,5.36
2018-02-22T15:44:06.579Z,5.36
2018-02-22T15:46:33.986Z,5.45
2018-02-22T15:49:01.414Z,5.46
2018-02-22T15:51:28.833Z,5.22
2018-02-22T15:53:56.255Z,5.15
2018-02-22T15:56:23.704Z,5.09
2018-02-22T15:58:51.106Z,5.03
2018-02-22T16:01:18.546Z,5.04
2018-02-22T16:03:45.974Z,5.00
2018-02-22T16:06:13.390Z,4.97
2018-02-22T16:08:40.826Z,4.86
2018-02-22T16:11:08.270Z,4.78
2018-02-22T16:13:35.694Z,4.67
2018-02-22T16:16:03.116Z,4.67
2018-02-22T16:18:30.567Z,4.53
2018-02-22T16:20:57.982Z,4.39
2018-02-22T16:23:25.434Z,4.38
2018-02-22T16:25:52.877Z,4.29
2018-02-22T16:28:20.310Z,4.18
2018-02-22T16:30:47.742Z,4.14
2018-02-22T16:33:15.216Z,4.15
2018-02-22T16:35:42.647Z,4.13
2018-02-22T16:38:10.093Z,4.08
2018-02-22T16:40:37.549Z,4.11
2018-02-22T16:43:04.972Z,4.03
2018-02-22T16:45:32.419Z,3.98
2018-02-22T16:47:59.834Z,4.01
2018-02-22T16:50:27.289Z,3.92
2018-02-22T16:52:54.714Z,3.88
2018-02-22T16:55:22.170Z,3.84
2018-02-22T16:57:49.927Z,3.86
2018-02-22T17:00:17.348Z,3.77
2018-02-22T17:02:44.777Z,3.68
2018-02-22T17:05:12.235Z,3.68
2018-02-22T17:07:39.647Z,3.70
2018-02-22T17:10:07.430Z,3.58
2018-02-22T17:12:34.882Z,3.53
2018-02-22T17:15:02.318Z,3.45
2018-02-22T17:17:41.808Z,3.36
2018-02-22T17:20:09.266Z,3.33
2018-02-22T17:22:36.867Z,3.28
2018-02-22T17:25:04.300Z,3.32
2018-02-22T17:27:37.126Z,3.32
2018-02-22T17:30:10.060Z,3.28
2018-02-22T17:32:36.951Z,3.28
2018-02-22T17:35:04.391Z,3.16
2018-02-22T17:40:46.734Z,3.05
2018-02-22T17:43:14.163Z,2.95
2018-02-22T17:45:41.594Z,2.87
2018-02-22T17:48:09.929Z,2.84
2018-02-22T17:50:37.357Z,2.77
2018-02-22T17:53:04.902Z,2.75
2018-02-22T17:55:32.394Z,2.60
2018-02-22T17:57:59.812Z,2.57
2018-02-22T18:00:27.241Z,2.48
2018-02-22T18:02:54.689Z,2.48
2018-02-22T18:05:22.127Z,2.43
2018-02-22T18:07:49.554Z,2.41
2018-02-22T18:10:16.981Z,2.34
2018-02-22T18:12:44.452Z,2.33
2018-02-22T18:15:11.838Z,2.25
2018-02-22T18:17:39.267Z,2.29
2018-02-22T18:20:06.702Z,2.24
2018-02-22T18:22:34.220Z,2.25
2018-02-22T18:25:01.676Z,2.25
2018-02-22T18:27:29.119Z,2.19
2018-02-22T18:29:56.554Z,2.12
2018-02-22T18:32:24.034Z,2.09
2018-02-22T18:34:51.447Z,1.97
2018-02-22T18:37:24.495Z,2.00
2018-02-22T18:39:51.930Z,1.97
2018-02-22T18:42:21.145Z,1.94
2018-02-22T18:44:54.150Z,1.96
2018-02-22T18:47:21.588Z,1.84
2018-02-22T18:49:49.021Z,1.86
2018-02-22T18:52:16.458Z,1.77
2018-02-22T18:54:43.928Z,1.68
2018-02-22T18:57:11.299Z,1.70
2018-02-22T18:59:38.714Z,1.66
2018-02-22T19:02:06.142Z,1.68
2018-02-22T19:04:33.553Z,1.62
2018-02-22T19:07:00.971Z,1.57
2018-02-22T19:09:28.410Z,1.54
2018-02-22T19:11:55.841Z,1.55
2018-02-22T19:14:23.554Z,1.52
2018-02-22T19:16:50.984Z,1.51
2018-02-22T19:19:18.401Z,1.53
2018-02-22T19:21:45.835Z,1.55
2018-02-22T19:24:13.262Z,1.43
2018-02-22T19:26:40.714Z,1.44
2018-02-22T19:29:08.142Z,1.48
2018-02-22T19:31:35.566Z,1.41
2018-02-22T19:34:02.989Z,1.32
2018-02-22T19:36:30.410Z,1.34
2018-02-22T19:38:57.850Z,1.33
2018-02-22T19:41:25.266Z,1.34
2018-02-22T19:43:52.691Z,1.35
2018-02-22T19:46:20.126Z,1.29
2018-02-22T19:48:47.542Z,1.17
2018-02-22T19:51:14.978Z,1.22
2018-02-22T19:53:42.398Z,1.23
2018-02-22T19:56:09.815Z,1.30
2018-02-22T19:58:37.245Z,1.29
2018-02-22T20:01:04.662Z,1.25
2018-02-22T20:03:32.086Z,1.21
2018-02-22T20:05:59.522Z,1.29
2018-02-22T20:08:26.931Z,1.27
2018-02-22T20:10:54.358Z,1.24
2018-02-22T20:13:21.783Z,1.22
2018-02-22T20:15:49.206Z,1.20
2018-02-22T20:18:16.627Z,1.06
2018-02-22T20:20:44.045Z,1.10
2018-02-22T20:23:11.468Z,1.10
2018-02-22T20:25:38.890Z,1.11
2018-02-22T20:28:06.298Z,1.13
2018-02-22T20:30:33.741Z,1.10
2018-02-22T20:33:01.157Z,1.07
2018-02-22T20:35:28.578Z,0.98
2018-02-22T20:37:55.997Z,0.89
2018-02-22T20:40:23.409Z,0.89
2018-02-22T20:42:50.855Z,0.83
2018-02-22T20:45:18.262Z,0.86
2018-02-22T20:47:45.687Z,0.86
2018-02-22T20:50:13.122Z,0.83
2018-02-22T20:52:41.465Z,0.78
2018-02-22T20:55:18.806Z,0.78
2018-02-22T20:57:46.235Z,0.81
2018-02-22T21:00:13.654Z,0.81
2018-02-22T21:02:41.071Z,0.75
2018-02-22T21:05:08.486Z,0.73
2018-02-22T21:07:35.910Z,0.78
2018-02-22T21:10:03.326Z,0.73
2018-02-22T21:12:31.089Z,0.64
2018-02-22T21:14:58.513Z,0.59
2018-02-22T21:17:25.921Z,0.61
2018-02-22T21:19:53.351Z,0.68
2018-02-22T21:22:20.786Z,0.65
2018-02-22T21:24:48.208Z,0.67
2018-02-22T21:27:15.954Z,0.68
2018-02-22T21:29:43.374Z,0.72
2018-02-22T21:32:10.804Z,0.66
2018-02-22T21:34:38.254Z,0.69
2018-02-22T21:37:05.683Z,0.70
2018-02-22T21:39:33.092Z,0.67
2018-02-22T21:42:00.506Z,0.62
2018-02-22T21:44:27.931Z,0.63
2018-02-22T21:46:55.350Z,0.53
2018-02-22T21:49:22.782Z,0.55
2018-02-22T21:51:50.198Z,0.54
2018-02-22T21:54:17.649Z,0.52
2018-02-22T21:57:05.599Z,0.50
2018-02-22T21:59:33.019Z,0.41
2018-02-22T22:02:00.500Z,0.39
2018-02-22T22:04:27.936Z,0.39
2018-02-22T22:06:55.363Z,0.35
2018-02-22T22:09:22.778Z,0.35
2018-02-22T22:11:50.199Z,0.33
2018-02-22T22:14:17.625Z,0.26
2018-02-22T22:16:45.053Z,0.23
2018-02-22T22:19:12.466Z,0.22
2018-02-22T22:21:39.890Z,0.22
2018-02-22T22:24:07.313Z,0.18
2018-02-22T22:26:34.734Z,0.17
2018-02-22T22:29:02.162Z,0.14
2018-02-22T22:31:29.583Z,0.12
2018-02-22T22:33:57.018Z,0.13
2018-02-22T22:36:24.430Z,0.08
2018-02-22T22:38:52.323Z,0.10
2018-02-22T22:41:19.741Z,0.01
2018-02-22T22:43:47.157Z,-0.05
2018-02-22T22:46:14.590Z,-0.06
2018-02-22T22:48:42.002Z,-0.02
2018-02-22T22:51:09.761Z,-0.07
2018-02-22T22:53:37.177Z,-0.06
2018-02-22T22:56:04.597Z,-0.08
2018-02-22T22:58:32.029Z,-0.16
2018-02-22T23:00:59.450Z,-0.13
2018-02-22T23:03:26.884Z,-0.17
2018-02-22T23:05:54.301Z,-0.17
2018-02-22T23:08:21.719Z,-0.21
2018-02-22T23:10:49.141Z,-0.21
2018-02-22T23:13:16.564Z,-0.25
2018-02-22T23:15:43.994Z,-0.28
2018-02-22T23:18:11.414Z,-0.33
2018-02-22T23:20:38.837Z,-0.36
2018-02-22T23:23:06.257Z,-0.38
2018-02-22T23:25:33.678Z,-0.35
2018-02-22T23:28:01.115Z,-0.38
2018-02-22T23:30:28.533Z,-0.42
2018-02-22T23:32:55.954Z,-0.50
2018-02-22T23:35:23.392Z,-0.46
2018-02-22T23:37:50.809Z,-0.54
2018-02-22T23:43:18.328Z,-0.50
2018-02-22T23:45:45.755Z,-0.51
2018-02-22T23:48:13.178Z,-0.52
2018-02-22T23:50:40.591Z,-0.51
2018-02-22T23:53:08.015Z,-0.55
2018-02-22T23:55:35.437Z,-0.55
2018-02-22T23:58:02.859Z,-0.56
